Yeager Airport
KCRW : now visible

Airfield :











YOU CAN JOIN US ON...

 
LOGIN :

Register | Disclaimer

   EN    FR    IT 

 









Legend :    VFR   Marginal VFR   IFR   Intensive IFR   Very Intensive IFR
Visi :
Ceiling :
>= 8 km
>= 3000ft
5 to 8 km
1000 to 3000 ft
1500m to 5 km
500 to 1000 ft
800 to 1500m
200 to 500 ft
< 800m
< 200 ft
Symbols :   Thunderstorms  Fog  Heavy snow  Heavy precipitations  Wind > 20 kt






- Airport Elevation : 981 ft
- IATA code : CRW


KCRW - Yeager

CURRENT METAR :
  • 071414Z 27004KT 10SM BKN015 BKN055 BKN070 24/20 A3011 RMK AO2 T02390200

EXPIRED METARs :
  • 071354Z 29005KT 10SM SCT014 BKN050 BKN070 25/20 A3011 RMK AO2 SLP185 T02500200
  • 071254Z 00000KT 7SM SCT004 SCT040 SCT070 22/20 A3010 RMK AO2 SLP182 T02220200
  • 071154Z 00000KT 6SM BR FEW000 BKN035 20/19 A3009 RMK AO2 SLP180 70006 T02000189 10211 20194 53014

TAF KCRW
Valid from the 07 at 12:00 until the 08 at 12:00 UTC


071120Z 0712/0812 00000KT 6SM BR SCT050
FM071400 00000KT P6SM BKN050
FM071900 00000KT P6SM VCTS BKN050CB
FM072300 00000KT P6SM BKN050
FM080700 00000KT 4SM BR BKN007
KZID FIR / North America



MET'MAP, your aeronautical weather chart ! - Copyright ORBIFLY December 2007 - Disclaimer

ORBIFLY MET'MAP TEAM :

Programming & Development : Alexandra Zaïnal
Concept & original design : Baudouin d'Aumeries
Assistance for programming : Marc-Olivier Méhu
Technical & hardware support : Manuel Goepfert

Contact : metmap@orbifly.com




SOURCES & CREDITS :

   NOAA       Earth
Advisory